Time;durP1;ratioP1;P1;durP2;ratioP2;P2;SDS_P1;SDS_P2;PMS_P1;PMS_P2;Temp;Humidity;BMP_temperature;BMP_pressure;BME280_temperature;BME280_humidity;BME280_pressure;Samples;Min_cycle;Max_cycle;Signal;HPM_P1;HPM_P2
2022/05/15 00:00:41;;;;;;;16.03;7.50;;;14.60;99.90;;;;;;5015220;28;20445;-72
2022/05/15 00:03:13;;;;;;;17.43;7.70;;;14.50;99.90;;;;;;5034444;28;22125;-71
2022/05/15 00:05:41;;;;;;;12.10;7.67;;;14.50;99.90;;;;;;5022599;28;20457;-71
2022/05/15 00:08:09;;;;;;;17.13;7.90;;;14.40;99.90;;;;;;5039373;28;20509;-71
2022/05/15 00:10:36;;;;;;;12.53;7.27;;;14.40;99.90;;;;;;5030673;28;20462;-71
2022/05/15 00:13:05;;;;;;;13.57;7.77;;;14.40;99.90;;;;;;5026018;28;20619;-71
2022/05/15 00:15:32;;;;;;;15.60;7.10;;;14.40;99.90;;;;;;5027182;28;20485;-71
2022/05/15 00:17:59;;;;;;;11.73;7.83;;;14.40;99.90;;;;;;5033152;28;20846;-71
2022/05/15 00:20:27;;;;;;;12.00;7.50;;;14.40;99.90;;;;;;5032026;28;20978;-71
2022/05/15 00:22:54;;;;;;;11.80;8.20;;;14.30;99.90;;;;;;5033481;28;20504;-71
2022/05/15 00:25:21;;;;;;;10.50;7.80;;;14.30;99.90;;;;;;5027550;28;20477;-71
2022/05/15 00:27:48;;;;;;;16.10;9.60;;;14.30;99.90;;;;;;5013973;28;20454;-71
2022/05/15 00:30:16;;;;;;;16.50;9.10;;;14.20;99.90;;;;;;5018607;28;20540;-71
2022/05/15 00:32:42;;;;;;;14.07;8.87;;;14.10;99.90;;;;;;5013331;28;20470;-71
2022/05/15 00:35:10;;;;;;;16.93;8.90;;;14.10;99.90;;;;;;5017667;28;20461;-71
2022/05/15 00:37:38;;;;;;;20.97;9.10;;;14.10;99.90;;;;;;5033196;28;20449;-72
2022/05/15 00:40:07;;;;;;;11.07;8.20;;;14.00;99.90;;;;;;5029263;28;20450;-71
2022/05/15 00:42:35;;;;;;;14.53;8.20;;;14.00;99.90;;;;;;5013177;28;21256;-71
2022/05/15 00:45:03;;;;;;;13.87;8.80;;;14.00;99.90;;;;;;5014851;28;20549;-71
2022/05/15 00:47:29;;;;;;;12.97;8.40;;;14.00;99.90;;;;;;5013400;28;20450;-71
2022/05/15 00:49:56;;;;;;;16.17;8.27;;;14.00;99.90;;;;;;5013237;28;20450;-71
2022/05/15 00:52:27;;;;;;;18.13;8.93;;;14.00;99.90;;;;;;5012983;28;20935;-71
2022/05/15 00:55:00;;;;;;;17.40;7.83;;;14.00;99.90;;;;;;5027260;28;20462;-71
2022/05/15 00:57:32;;;;;;;16.73;9.50;;;14.00;99.90;;;;;;5026432;28;20994;-71
2022/05/15 01:00:03;;;;;;;11.50;8.37;;;14.00;99.90;;;;;;5024062;28;20872;-71
2022/05/15 01:02:35;;;;;;;14.30;8.33;;;14.00;99.90;;;;;;5013190;28;20568;-71
2022/05/15 01:05:02;;;;;;;13.40;9.73;;;13.90;99.90;;;;;;5032569;28;20866;-71
2022/05/15 01:07:29;;;;;;;11.23;8.50;;;13.90;99.90;;;;;;5035338;28;20509;-71
2022/05/15 01:09:59;;;;;;;21.13;8.40;;;13.80;99.90;;;;;;5013924;28;20874;-71
2022/05/15 01:12:26;;;;;;;10.90;7.77;;;13.80;99.90;;;;;;5029723;28;20481;-71
2022/05/15 01:14:53;;;;;;;14.03;8.70;;;13.80;99.90;;;;;;5018249;28;20987;-70
2022/05/15 01:17:20;;;;;;;13.90;8.67;;;13.80;99.90;;;;;;5017420;28;20508;-72
2022/05/15 01:19:46;;;;;;;18.70;8.20;;;13.80;99.90;;;;;;5032357;28;20457;-72
2022/05/15 01:22:15;;;;;;;21.97;8.73;;;13.70;99.90;;;;;;5032284;28;20512;-72
2022/05/15 01:24:42;;;;;;;15.43;8.30;;;13.60;99.90;;;;;;5030300;28;20515;-72
2022/05/15 01:27:11;;;;;;;12.17;7.90;;;13.60;99.90;;;;;;5031312;28;20454;-72
2022/05/15 01:29:43;;;;;;;18.03;8.43;;;13.60;99.90;;;;;;5032011;28;20844;-72
2022/05/15 01:32:10;;;;;;;12.53;8.53;;;13.50;99.90;;;;;;5029473;28;20839;-72
2022/05/15 01:34:37;;;;;;;13.20;8.67;;;13.50;99.90;;;;;;5028450;28;20527;-72
2022/05/15 01:37:04;;;;;;;18.73;8.90;;;13.50;99.90;;;;;;5012371;28;20458;-72
2022/05/15 01:39:32;;;;;;;11.97;7.70;;;13.40;99.90;;;;;;5013088;28;20504;-72
2022/05/15 01:41:59;;;;;;;19.00;9.43;;;13.40;99.90;;;;;;5018518;28;20493;-71
2022/05/15 01:44:27;;;;;;;15.50;8.13;;;13.40;99.90;;;;;;5027014;28;20450;-72
2022/05/15 01:46:54;;;;;;;16.80;8.83;;;13.30;99.90;;;;;;5026387;28;20515;-72
2022/05/15 01:49:21;;;;;;;13.47;9.60;;;13.30;99.90;;;;;;5012320;28;20846;-71
2022/05/15 01:51:48;;;;;;;12.07;8.20;;;13.20;99.90;;;;;;5028041;28;20576;-72
2022/05/15 01:54:15;;;;;;;12.63;9.23;;;13.20;99.90;;;;;;5028374;28;20457;-72
2022/05/15 01:56:43;;;;;;;14.07;9.87;;;13.20;99.90;;;;;;5024275;28;20853;-72
2022/05/15 01:59:10;;;;;;;17.00;9.87;;;13.10;99.90;;;;;;5049290;28;20456;-71
2022/05/15 02:01:37;;;;;;;14.80;8.03;;;13.10;99.90;;;;;;5027050;28;21047;-72
2022/05/15 02:04:07;;;;;;;17.50;9.30;;;13.10;99.90;;;;;;5011899;28;21005;-72
2022/05/15 02:06:33;;;;;;;15.17;8.87;;;13.00;99.90;;;;;;5013418;28;21073;-72
2022/05/15 02:09:00;;;;;;;14.30;9.30;;;13.10;99.90;;;;;;5037904;28;20448;-72
2022/05/15 02:11:27;;;;;;;14.53;10.13;;;13.10;99.90;;;;;;5013866;28;20493;-72
2022/05/15 02:13:55;;;;;;;14.37;8.83;;;13.10;99.90;;;;;;5011367;28;20481;-72
2022/05/15 02:16:21;;;;;;;13.17;9.33;;;13.00;99.90;;;;;;5029088;28;20515;-72
2022/05/15 02:18:48;;;;;;;16.03;9.70;;;13.00;99.90;;;;;;5031261;28;20977;-72
2022/05/15 02:21:15;;;;;;;19.27;10.20;;;13.00;99.90;;;;;;5029180;28;20993;-72
2022/05/15 02:23:41;;;;;;;14.87;10.47;;;12.90;99.90;;;;;;5030343;28;20881;-72
2022/05/15 02:26:08;;;;;;;16.37;9.17;;;12.90;99.90;;;;;;5028846;28;20519;-72
2022/05/15 02:28:35;;;;;;;14.33;9.97;;;12.80;99.90;;;;;;5023203;28;20520;-72
2022/05/15 02:31:03;;;;;;;19.20;11.27;;;12.80;99.90;;;;;;5019013;28;20539;-71
2022/05/15 02:33:29;;;;;;;18.73;10.20;;;12.80;99.90;;;;;;5030383;28;20511;-71
2022/05/15 02:35:58;;;;;;;21.90;11.00;;;12.80;99.90;;;;;;5012442;28;20861;-72
2022/05/15 02:38:24;;;;;;;20.07;10.83;;;12.70;99.90;;;;;;5020060;28;20457;-72
2022/05/15 02:40:51;;;;;;;17.83;10.37;;;12.70;99.90;;;;;;5028716;28;20557;-72
2022/05/15 02:43:18;;;;;;;13.63;11.33;;;12.70;99.90;;;;;;5030883;28;20485;-72
2022/05/15 02:45:44;;;;;;;22.40;10.50;;;12.70;99.90;;;;;;5020993;28;21004;-72
2022/05/15 02:51:05;;;;;;;21.43;10.00;;;12.60;99.90;;;;;;5018072;28;20805;-71
2022/05/15 02:53:32;;;;;;;19.37;9.80;;;12.50;99.90;;;;;;5027666;28;20843;-72
2022/05/15 02:55:59;;;;;;;18.20;11.03;;;12.50;99.90;;;;;;5021631;28;20941;-72
2022/05/15 02:58:26;;;;;;;16.43;10.50;;;12.40;99.90;;;;;;5034758;28;20468;-72
2022/05/15 03:00:53;;;;;;;15.97;10.30;;;12.40;99.90;;;;;;5032419;28;20850;-71
2022/05/15 03:03:21;;;;;;;18.37;11.30;;;12.30;99.90;;;;;;5022539;28;20485;-72
2022/05/15 03:05:47;;;;;;;18.23;10.60;;;12.30;99.90;;;;;;5020129;28;20499;-72
2022/05/15 03:08:14;;;;;;;16.00;10.80;;;12.20;99.90;;;;;;5018402;28;20442;-72
2022/05/15 03:10:41;;;;;;;20.10;10.70;;;12.20;99.90;;;;;;5030217;28;20889;-73
2022/05/15 03:13:07;;;;;;;19.20;10.83;;;12.20;99.90;;;;;;5034326;28;20556;-73
2022/05/15 03:15:34;;;;;;;17.10;10.33;;;12.10;99.90;;;;;;5029920;28;20500;-73
2022/05/15 03:18:01;;;;;;;16.20;10.03;;;12.10;99.90;;;;;;5015150;28;20450;-73
2022/05/15 03:20:29;;;;;;;15.43;10.40;;;12.10;99.90;;;;;;5015268;28;20481;-73
2022/05/15 03:22:57;;;;;;;15.07;10.90;;;12.00;99.90;;;;;;5021124;28;20998;-73
2022/05/15 03:25:26;;;;;;;16.10;10.97;;;12.00;99.90;;;;;;5022875;28;20450;-73
2022/05/15 03:27:53;;;;;;;17.03;10.60;;;12.00;99.90;;;;;;5034502;28;20456;-73
2022/05/15 03:30:20;;;;;;;16.30;11.00;;;12.00;99.90;;;;;;5031625;28;20813;-73
2022/05/15 03:32:46;;;;;;;16.03;10.60;;;12.00;99.90;;;;;;5014858;28;20466;-73
2022/05/15 03:35:14;;;;;;;21.30;10.73;;;12.00;99.90;;;;;;5017000;28;21007;-74
2022/05/15 03:37:43;;;;;;;16.03;10.40;;;11.90;99.90;;;;;;5014703;28;20454;-74
2022/05/15 03:40:11;;;;;;;13.57;10.83;;;11.90;99.90;;;;;;5016076;28;20458;-73
2022/05/15 03:42:38;;;;;;;22.47;10.80;;;11.90;99.90;;;;;;5028571;28;20568;-73
2022/05/15 03:45:06;;;;;;;18.00;10.70;;;11.90;99.90;;;;;;5015188;28;20565;-73
2022/05/15 03:47:35;;;;;;;22.67;10.00;;;11.90;99.90;;;;;;5033336;28;20449;-73
2022/05/15 03:50:02;;;;;;;22.87;11.23;;;11.80;99.90;;;;;;5027608;28;20481;-73
2022/05/15 03:52:28;;;;;;;18.73;11.40;;;11.80;99.90;;;;;;5021561;28;20512;-73
2022/05/15 03:54:56;;;;;;;15.50;10.97;;;11.80;99.90;;;;;;5014015;28;20511;-73
2022/05/15 03:57:23;;;;;;;17.17;10.53;;;11.80;99.90;;;;;;5026740;28;20968;-73
2022/05/15 03:59:49;;;;;;;12.63;10.40;;;11.80;99.90;;;;;;5018107;28;20450;-73
2022/05/15 04:02:16;;;;;;;14.13;10.30;;;11.80;99.90;;;;;;5033403;28;20485;-73
2022/05/15 04:04:43;;;;;;;14.37;10.37;;;11.80;99.90;;;;;;5032268;28;20539;-73
2022/05/15 04:07:10;;;;;;;21.93;10.30;;;11.80;99.90;;;;;;5023689;28;21025;-73
2022/05/15 04:09:40;;;;;;;18.03;10.20;;;11.80;99.90;;;;;;5023061;28;20470;-73
2022/05/15 04:12:09;;;;;;;14.30;9.73;;;11.70;99.90;;;;;;5013944;28;20482;-73
2022/05/15 04:14:36;;;;;;;16.47;9.63;;;11.80;99.90;;;;;;5013179;28;20451;-73
2022/05/15 04:17:03;;;;;;;12.97;10.00;;;11.80;99.90;;;;;;5030593;28;20457;-73
2022/05/15 04:19:30;;;;;;;19.97;11.27;;;11.80;99.90;;;;;;5032565;28;21030;-73
2022/05/15 04:21:58;;;;;;;14.20;10.10;;;11.80;99.90;;;;;;5016595;28;20532;-73
2022/05/15 04:24:25;;;;;;;18.60;10.10;;;11.80;99.90;;;;;;5032390;28;20458;-73
2022/05/15 04:26:52;;;;;;;16.23;10.77;;;11.80;99.90;;;;;;5017802;28;20947;-73
2022/05/15 04:29:20;;;;;;;13.93;10.63;;;11.80;99.90;;;;;;5022710;28;20449;-73
2022/05/15 04:31:47;;;;;;;13.53;9.50;;;11.80;99.90;;;;;;5019205;28;20573;-73
2022/05/15 04:34:14;;;;;;;15.77;10.93;;;11.80;99.90;;;;;;5015010;28;20508;-73
2022/05/15 04:36:41;;;;;;;16.43;9.90;;;11.80;99.90;;;;;;5018427;28;21009;-73
2022/05/15 04:39:07;;;;;;;23.93;11.10;;;11.90;99.90;;;;;;5013565;28;20457;-73
2022/05/15 04:41:34;;;;;;;13.40;10.47;;;11.90;99.90;;;;;;5019677;28;20831;-73
2022/05/15 04:44:01;;;;;;;22.27;10.00;;;12.00;99.90;;;;;;5020831;28;20915;-73
2022/05/15 04:46:29;;;;;;;16.10;9.97;;;12.00;99.90;;;;;;5020567;28;20516;-73
2022/05/15 04:48:56;;;;;;;11.47;9.77;;;12.00;99.90;;;;;;5034100;28;20452;-73
2022/05/15 04:51:23;;;;;;;17.60;9.33;;;12.10;99.90;;;;;;5016873;28;21033;-73
2022/05/15 04:53:50;;;;;;;15.03;9.60;;;12.20;99.90;;;;;;5011765;28;20450;-73
2022/05/15 04:56:16;;;;;;;20.00;10.00;;;12.30;99.90;;;;;;5024277;28;20454;-73
2022/05/15 04:58:43;;;;;;;10.00;8.93;;;12.40;99.90;;;;;;5032553;28;20480;-73
2022/05/15 05:01:10;;;;;;;15.50;9.60;;;12.50;99.90;;;;;;5036813;28;20534;-72
2022/05/15 05:03:38;;;;;;;15.60;9.83;;;12.60;99.90;;;;;;5040669;28;20485;-73
2022/05/15 05:06:04;;;;;;;14.83;9.73;;;12.70;99.90;;;;;;5021645;28;20459;-70
2022/05/15 05:08:31;;;;;;;15.27;8.70;;;12.80;99.90;;;;;;5012250;28;20869;-70
2022/05/15 05:10:58;;;;;;;14.30;8.60;;;12.90;99.90;;;;;;5019584;28;20551;-70
2022/05/15 05:13:24;;;;;;;18.17;9.47;;;13.00;99.90;;;;;;5031476;28;20519;-70
2022/05/15 05:15:51;;;;;;;23.13;8.90;;;13.10;99.90;;;;;;5034136;28;20954;-70
2022/05/15 05:18:19;;;;;;;14.30;9.57;;;13.20;99.90;;;;;;5015709;28;21012;-70
2022/05/15 05:20:47;;;;;;;16.50;9.20;;;13.30;99.90;;;;;;5012507;28;20450;-70
2022/05/15 05:23:14;;;;;;;17.73;8.27;;;13.40;99.90;;;;;;5009723;28;20482;-70
2022/05/15 05:25:41;;;;;;;19.67;9.50;;;13.40;99.90;;;;;;5016293;28;20961;-70
2022/05/15 05:28:08;;;;;;;15.70;8.30;;;13.60;99.90;;;;;;5012458;28;20451;-70
2022/05/15 05:30:37;;;;;;;12.53;8.30;;;13.70;99.90;;;;;;5015792;28;20878;-71
2022/05/15 05:33:03;;;;;;;15.67;9.03;;;13.80;99.90;;;;;;5031455;28;20453;-70
2022/05/15 05:35:30;;;;;;;19.73;9.30;;;14.00;99.90;;;;;;5031311;28;20457;-70
2022/05/15 05:37:58;;;;;;;14.27;8.70;;;14.10;99.90;;;;;;5031852;28;20480;-70
2022/05/15 05:40:25;;;;;;;12.13;8.00;;;14.30;99.90;;;;;;5024303;28;20459;-71
2022/05/15 05:42:52;;;;;;;24.23;9.50;;;14.40;99.90;;;;;;5019677;28;20548;-70
2022/05/15 05:45:19;;;;;;;9.60;7.23;;;14.60;99.90;;;;;;5015815;28;20583;-70
2022/05/15 05:47:47;;;;;;;19.57;7.90;;;14.70;99.90;;;;;;5018373;28;20503;-70
2022/05/15 05:50:15;;;;;;;16.23;7.70;;;14.90;99.90;;;;;;5032029;28;20548;-70
2022/05/15 05:52:42;;;;;;;17.30;7.73;;;15.10;99.90;;;;;;5031104;28;20474;-70
2022/05/15 05:55:13;;;;;;;14.47;7.43;;;15.30;99.90;;;;;;5019767;28;20479;-70
2022/05/15 05:57:41;;;;;;;14.60;8.03;;;15.50;99.90;;;;;;5014672;28;20454;-70
2022/05/15 06:00:11;;;;;;;17.93;7.67;;;15.60;99.90;;;;;;5011603;28;20496;-70
2022/05/15 06:02:37;;;;;;;10.00;7.67;;;15.80;99.90;;;;;;5022126;28;20488;-71
2022/05/15 06:05:04;;;;;;;12.90;7.80;;;15.90;99.90;;;;;;5027481;28;20450;-71
2022/05/15 06:07:33;;;;;;;9.90;7.27;;;16.00;99.90;;;;;;5012279;28;20427;-70
2022/05/15 06:10:01;;;;;;;11.30;7.47;;;16.20;99.90;;;;;;5029333;28;20455;-70
2022/05/15 06:12:29;;;;;;;16.53;7.43;;;16.30;99.90;;;;;;5030655;28;20481;-70
2022/05/15 06:14:55;;;;;;;10.50;7.40;;;16.40;99.90;;;;;;5028911;28;20507;-70
2022/05/15 06:17:23;;;;;;;10.53;7.50;;;16.60;99.90;;;;;;5028449;28;20542;-71
2022/05/15 06:19:50;;;;;;;12.77;7.83;;;16.70;99.90;;;;;;5027345;28;20454;-70
2022/05/15 06:22:17;;;;;;;10.03;7.27;;;16.70;99.90;;;;;;5011538;28;20478;-70
2022/05/15 06:24:44;;;;;;;14.47;6.90;;;16.90;99.90;;;;;;5026296;28;20528;-70
2022/05/15 06:27:11;;;;;;;10.87;6.60;;;17.00;99.90;;;;;;5014398;28;20449;-72
2022/05/15 06:29:41;;;;;;;11.47;6.77;;;17.20;99.90;;;;;;5031554;28;20453;-72
2022/05/15 06:32:09;;;;;;;12.13;6.97;;;17.30;99.90;;;;;;5030641;28;20469;-72
2022/05/15 06:34:36;;;;;;;11.93;7.33;;;17.50;99.90;;;;;;5030604;28;20852;-72
2022/05/15 06:37:03;;;;;;;11.70;6.80;;;17.70;99.90;;;;;;5018365;28;20458;-72
2022/05/15 06:39:31;;;;;;;12.97;7.47;;;17.90;99.90;;;;;;5028868;28;20435;-72
2022/05/15 06:41:59;;;;;;;11.77;7.03;;;18.10;99.90;;;;;;5027120;28;20473;-72
2022/05/15 06:44:27;;;;;;;9.80;6.40;;;18.30;99.90;;;;;;5013863;28;20490;-72
2022/05/15 06:46:56;;;;;;;10.20;6.70;;;18.40;99.90;;;;;;5013104;28;20436;-72
2022/05/15 06:49:23;;;;;;;12.63;6.90;;;18.50;99.90;;;;;;5011346;28;20804;-72
2022/05/15 06:51:49;;;;;;;11.33;6.90;;;18.70;99.90;;;;;;5011356;28;20448;-72
2022/05/15 06:54:16;;;;;;;18.67;6.67;;;18.80;99.90;;;;;;5025429;28;20433;-72
2022/05/15 06:59:27;;;;;;;17.17;6.67;;;19.20;99.90;;;;;;5023057;28;21043;-72
2022/05/15 07:01:55;;;;;;;11.50;6.87;;;19.30;99.90;;;;;;5016626;28;20453;-71
2022/05/15 07:04:21;;;;;;;14.40;6.53;;;19.50;99.90;;;;;;5016701;28;20502;-71
2022/05/15 07:06:48;;;;;;;16.40;6.50;;;19.70;99.90;;;;;;5025645;28;20937;-72
2022/05/15 07:09:15;;;;;;;11.03;5.33;;;19.80;99.90;;;;;;5029957;28;20478;-72
2022/05/15 07:11:41;;;;;;;11.73;5.90;;;19.90;99.90;;;;;;5008082;28;20482;-72
2022/05/15 07:14:09;;;;;;;10.10;5.90;;;20.00;99.90;;;;;;5010338;28;20479;-72
2022/05/15 07:16:36;;;;;;;13.67;5.73;;;20.20;99.90;;;;;;5020705;28;20461;-74
2022/05/15 07:19:04;;;;;;;8.20;5.00;;;20.50;99.90;;;;;;5015074;28;20864;-73
2022/05/15 07:21:31;;;;;;;14.80;5.20;;;20.70;99.90;;;;;;5025390;28;20831;-74
2022/05/15 07:23:57;;;;;;;15.77;5.00;;;20.70;99.90;;;;;;5025411;28;20840;-74
2022/05/15 07:26:25;;;;;;;23.00;5.70;;;20.70;99.90;;;;;;5029705;28;20458;-74
2022/05/15 07:28:52;;;;;;;9.23;4.70;;;20.80;99.90;;;;;;5024384;28;20545;-74
2022/05/15 07:31:19;;;;;;;11.97;5.20;;;20.80;99.90;;;;;;5018268;28;20527;-75
2022/05/15 07:33:47;;;;;;;10.97;4.80;;;20.70;99.90;;;;;;5013308;28;20446;-74
2022/05/15 07:36:15;;;;;;;15.00;5.47;;;20.70;99.90;;;;;;5029095;28;20457;-73
2022/05/15 07:38:42;;;;;;;10.70;4.57;;;20.90;99.90;;;;;;5033088;28;20455;-74
2022/05/15 07:41:09;;;;;;;16.23;5.37;;;21.00;99.90;;;;;;5032014;28;20469;-74
2022/05/15 07:43:36;;;;;;;12.70;5.07;;;21.20;99.90;;;;;;5032876;28;20488;-74
2022/05/15 07:46:03;;;;;;;12.13;4.60;;;21.40;99.90;;;;;;5025056;28;20513;-74
2022/05/15 07:48:29;;;;;;;10.33;5.10;;;21.60;99.90;;;;;;5013494;28;20477;-74
2022/05/15 07:50:56;;;;;;;9.63;4.80;;;21.80;99.90;;;;;;5015271;28;20544;-74
2022/05/15 07:53:25;;;;;;;8.67;4.80;;;21.80;99.90;;;;;;5020777;28;20500;-72
2022/05/15 07:55:53;;;;;;;12.53;5.30;;;21.80;99.90;;;;;;5019865;28;20486;-72
2022/05/15 07:58:20;;;;;;;8.87;4.57;;;21.80;99.90;;;;;;5013636;28;20450;-72
2022/05/15 08:00:47;;;;;;;12.50;5.50;;;21.50;99.90;;;;;;5018698;28;20502;-73
2022/05/15 08:03:13;;;;;;;11.90;6.07;;;21.50;99.90;;;;;;5012518;28;20489;-73
2022/05/15 08:08:27;;;;;;;10.27;5.57;;;22.00;99.90;;;;;;5029112;28;20443;-76
2022/05/15 08:10:53;;;;;;;10.80;4.20;;;22.30;99.90;;;;;;5038159;28;20499;-76
2022/05/15 08:13:22;;;;;;;14.03;9.30;;;22.40;99.90;;;;;;5032064;28;20503;-76
2022/05/15 08:15:49;;;;;;;10.18;5.50;;;22.30;99.90;;;;;;5020673;28;20448;-75
2022/05/15 08:23:50;;;;;;;8.70;4.77;;;22.80;99.90;;;;;;5015618;28;20592;-74
2022/05/15 08:26:17;;;;;;;13.30;4.70;;;22.40;99.90;;;;;;5014563;28;20512;-75
2022/05/15 08:28:44;;;;;;;13.07;4.50;;;22.10;99.90;;;;;;5027205;28;20897;-75
2022/05/15 08:31:11;;;;;;;8.80;4.07;;;21.70;99.90;;;;;;5026590;28;20466;-73
2022/05/15 08:33:39;;;;;;;10.47;4.37;;;21.60;99.90;;;;;;5012525;28;20500;-72
2022/05/15 08:36:07;;;;;;;12.63;4.30;;;21.60;99.90;;;;;;5019977;28;20464;-72
2022/05/15 08:38:35;;;;;;;11.37;4.80;;;22.00;99.90;;;;;;5030976;28;20500;-73
2022/05/15 08:41:09;;;;;;;12.60;4.87;;;22.30;99.90;;;;;;5029239;28;20886;-72
2022/05/15 08:43:42;;;;;;;11.33;4.80;;;22.20;99.90;;;;;;5028089;28;20575;-75
2022/05/15 08:46:21;;;;;;;74.50;24.07;;;22.30;99.90;;;;;;5030974;28;20545;-75
2022/05/15 08:48:48;;;;;;;11.20;4.80;;;22.70;99.90;;;;;;5022315;28;20792;-74
2022/05/15 08:51:15;;;;;;;18.30;7.27;;;23.10;99.90;;;;;;5023706;28;20477;-75
2022/05/15 08:53:44;;;;;;;14.87;5.80;;;23.20;99.90;;;;;;5030837;28;20445;-75
2022/05/15 08:56:14;;;;;;;71.87;23.93;;;23.30;99.90;;;;;;5027658;28;20453;-74
2022/05/15 08:58:47;;;;;;;18.30;7.77;;;23.40;99.90;;;;;;5013355;28;20902;-75
2022/05/15 09:01:17;;;;;;;12.20;4.57;;;23.60;99.90;;;;;;5020437;28;20484;-74
2022/05/15 09:03:44;;;;;;;14.53;4.80;;;23.60;99.90;;;;;;5014012;28;20478;-75
2022/05/15 09:06:28;;;;;;;18.27;5.00;;;23.40;99.90;;;;;;5025851;28;21262;-75
2022/05/15 09:09:08;;;;;;;12.03;4.40;;;23.60;99.90;;;;;;5014454;28;20462;-74
2022/05/15 09:11:49;;;;;;;21.93;7.73;;;23.90;99.90;;;;;;5020641;28;20485;-75
2022/05/15 09:14:29;;;;;;;8.70;4.50;;;23.90;99.90;;;;;;5021279;28;20537;-75
2022/05/15 09:16:58;;;;;;;14.70;5.40;;;24.00;99.90;;;;;;5014409;28;20446;-75
2022/05/15 09:19:25;;;;;;;12.53;6.10;;;24.00;99.90;;;;;;5020467;28;20491;-75
2022/05/15 09:21:56;;;;;;;15.33;4.73;;;24.20;99.90;;;;;;5017277;28;20528;-75
2022/05/15 09:24:36;;;;;;;9.70;5.30;;;24.40;99.90;;;;;;5032444;28;21055;-75
2022/05/15 09:27:19;;;;;;;20.83;5.57;;;24.40;99.90;;;;;;5026232;28;20503;-75
2022/05/15 09:29:53;;;;;;;18.13;6.03;;;24.40;99.90;;;;;;5024895;28;20458;-75
2022/05/15 09:32:39;;;;;;;17.70;6.87;;;24.30;99.90;;;;;;5026270;28;20552;-76
2022/05/15 09:35:17;;;;;;;11.03;4.17;;;24.20;99.90;;;;;;5026187;28;20462;-75
2022/05/15 09:40:40;;;;;;;10.67;4.60;;;24.60;99.90;;;;;;5032086;28;20448;-75
2022/05/15 09:43:32;;;;;;;8.07;4.50;;;24.80;99.90;;;;;;5017929;28;20453;-79
2022/05/15 09:46:07;;;;;;;11.33;4.60;;;24.90;99.90;;;;;;5015880;28;20461;-76
2022/05/15 09:48:39;;;;;;;7.43;3.70;;;24.90;99.90;;;;;;5022140;28;20524;-76
2022/05/15 09:51:12;;;;;;;12.03;4.23;;;25.00;99.90;;;;;;5028592;28;20477;-78
2022/05/15 09:53:43;;;;;;;12.93;4.30;;;24.90;99.90;;;;;;5030258;28;20505;-75
2022/05/15 09:56:14;;;;;;;16.30;4.33;;;24.70;99.90;;;;;;5021865;28;20460;-75
2022/05/15 09:58:46;;;;;;;13.17;3.83;;;24.50;99.90;;;;;;5030408;28;20446;-76
2022/05/15 10:01:35;;;;;;;11.60;3.77;;;24.00;99.90;;;;;;5025174;28;20468;-76
2022/05/15 10:04:04;;;;;;;13.50;6.00;;;23.80;99.90;;;;;;5014464;28;20492;-76
2022/05/15 10:06:33;;;;;;;9.17;4.30;;;23.80;99.90;;;;;;5011675;28;20878;-77
2022/05/15 10:09:09;;;;;;;13.97;4.50;;;24.20;99.90;;;;;;5025425;28;20449;-78
2022/05/15 10:11:38;;;;;;;12.07;4.00;;;24.50;99.90;;;;;;5022112;28;20548;-77
2022/05/15 10:14:09;;;;;;;8.50;3.90;;;24.60;99.90;;;;;;5018780;28;20438;-78
2022/05/15 10:16:49;;;;;;;12.40;5.23;;;24.80;99.90;;;;;;5023471;28;20966;-78
2022/05/15 10:19:22;;;;;;;10.37;4.13;;;24.90;99.90;;;;;;5017871;28;20445;-78
2022/05/15 10:21:53;;;;;;;9.93;3.77;;;25.10;99.90;;;;;;5030122;28;20472;-78
2022/05/15 10:24:25;;;;;;;11.80;4.60;;;25.40;99.90;;;;;;5039779;28;20482;-77
2022/05/15 10:26:59;;;;;;;10.37;4.60;;;25.60;99.90;;;;;;5021799;28;20465;-77
2022/05/15 10:29:36;;;;;;;7.33;3.83;;;25.30;99.90;;;;;;5025255;28;20456;-77
2022/05/15 10:32:09;;;;;;;8.70;3.83;;;25.30;99.90;;;;;;5022202;28;20485;-78
2022/05/15 10:34:36;;;;;;;11.40;3.80;;;25.30;99.90;;;;;;5021073;28;20999;-78
2022/05/15 10:37:18;;;;;;;5.53;3.37;;;25.30;99.90;;;;;;5028502;28;20488;-77
2022/05/15 10:40:01;;;;;;;9.43;3.50;;;25.40;99.90;;;;;;5025389;28;20505;-77
2022/05/15 10:42:39;;;;;;;13.63;3.97;;;25.20;99.90;;;;;;5023348;28;20480;-79
2022/05/15 10:45:18;;;;;;;14.57;5.17;;;25.10;99.90;;;;;;5030913;28;20535;-78
2022/05/15 10:48:02;;;;;;;6.13;3.73;;;24.80;99.90;;;;;;5020466;28;20469;-77
2022/05/15 10:50:47;;;;;;;7.43;3.47;;;24.80;99.90;;;;;;5029914;28;20484;-78
2022/05/15 10:59:39;;;;;;;10.33;3.90;;;25.00;99.90;;;;;;5034661;28;20460;-78
2022/05/15 11:02:24;;;;;;;9.00;4.13;;;25.20;99.90;;;;;;5023042;28;20506;-77
2022/05/15 11:05:00;;;;;;;6.83;3.20;;;25.50;99.90;;;;;;5026727;28;20513;-79
2022/05/15 11:07:36;;;;;;;6.60;3.20;;;25.70;99.90;;;;;;5022848;28;20519;-77
2022/05/15 11:10:09;;;;;;;8.03;3.00;;;25.60;99.90;;;;;;5037851;28;20869;-77
2022/05/15 11:12:41;;;;;;;7.03;3.40;;;25.70;99.90;;;;;;5022108;28;20536;-77
2022/05/15 11:15:37;;;;;;;5.20;3.33;;;26.00;99.90;;;;;;5023961;28;20541;-76
2022/05/15 11:18:16;;;;;;;6.50;3.33;;;26.20;99.90;;;;;;5025509;28;20489;-75
2022/05/15 11:20:47;;;;;;;7.53;3.53;;;26.20;99.90;;;;;;5028262;28;20450;-75
2022/05/15 11:23:18;;;;;;;12.00;2.97;;;26.00;99.90;;;;;;5028501;28;20861;-78
2022/05/15 11:25:49;;;;;;;4.77;2.90;;;25.70;99.90;;;;;;5027197;28;20485;-76
2022/05/15 11:28:23;;;;;;;7.70;2.83;;;25.60;99.90;;;;;;5031609;28;20453;-76
2022/05/15 11:30:59;;;;;;;6.80;3.00;;;25.70;99.90;;;;;;5015880;28;20512;-75
2022/05/15 11:33:34;;;;;;;7.20;3.20;;;26.10;99.90;;;;;;5030899;28;20461;-75
2022/05/15 11:36:11;;;;;;;8.57;3.00;;;26.20;99.90;;;;;;5032223;28;20457;-76
2022/05/15 11:38:48;;;;;;;8.30;3.37;;;26.60;99.90;;;;;;5029889;28;20480;-76
2022/05/15 11:41:32;;;;;;;9.53;3.03;;;26.60;99.10;;;;;;5014436;28;20897;-75
2022/05/15 11:44:00;;;;;;;4.97;2.73;;;26.70;99.90;;;;;;5025222;28;20461;-77
2022/05/15 11:47:10;;;;;;;9.10;2.90;;;26.90;97.70;;;;;;5029491;28;20457;-76
2022/05/15 11:49:39;;;;;;;9.53;2.60;;;26.90;97.60;;;;;;5009034;28;20511;-76
2022/05/15 11:52:35;;;;;;;8.23;2.97;;;26.70;96.90;;;;;;5023054;28;20981;-76
2022/05/15 11:55:22;;;;;;;13.63;3.77;;;26.50;97.30;;;;;;5013744;28;20959;-78
2022/05/15 11:57:48;;;;;;;14.20;5.00;;;26.50;97.40;;;;;;5018544;28;20449;-77
2022/05/15 12:00:23;;;;;;;9.17;3.40;;;26.60;97.10;;;;;;5018597;28;20458;-77
2022/05/15 12:02:55;;;;;;;6.97;2.70;;;26.80;98.60;;;;;;5034582;28;20478;-80
2022/05/15 12:05:36;;;;;;;7.70;2.67;;;26.90;96.30;;;;;;5027038;28;20481;-78
2022/05/15 12:08:25;;;;;;;7.10;2.50;;;27.00;95.90;;;;;;5018155;28;20992;-76
2022/05/15 12:10:59;;;;;;;3.40;2.50;;;27.00;96.00;;;;;;5022244;28;20685;-78
2022/05/15 12:13:36;;;;;;;8.87;2.43;;;27.10;95.60;;;;;;5021579;28;20462;-77
2022/05/15 12:16:29;;;;;;;4.63;2.27;;;27.40;95.10;;;;;;5030857;28;20528;-78
2022/05/15 12:19:01;;;;;;;4.00;2.60;;;27.60;93.60;;;;;;5011058;28;20485;-76
2022/05/15 12:21:35;;;;;;;26.13;18.10;;;27.60;92.40;;;;;;5018247;28;20557;-75
2022/05/15 12:26:56;;;;;;;9.30;2.60;;;28.00;93.00;;;;;;5020906;28;20449;-77
2022/05/15 12:29:33;;;;;;;6.82;2.60;;;28.20;91.70;;;;;;5031655;28;20853;-75
2022/05/15 12:32:00;;;;;;;16.50;10.33;;;28.00;91.00;;;;;;5017071;28;20231;-75
2022/05/15 12:34:31;;;;;;;5.70;2.40;;;27.70;90.50;;;;;;5015117;28;20454;-76
2022/05/15 12:37:00;;;;;;;7.43;4.60;;;27.70;90.70;;;;;;5029851;28;20473;-74
2022/05/15 12:39:30;;;;;;;3.30;2.30;;;27.70;90.70;;;;;;5013986;28;20455;-75
2022/05/15 12:42:02;;;;;;;6.67;2.80;;;27.60;86.90;;;;;;5023670;28;20465;-73
2022/05/15 12:44:34;;;;;;;5.17;2.50;;;27.50;87.80;;;;;;5030700;28;20462;-74
2022/05/15 12:47:02;;;;;;;9.40;3.00;;;27.30;88.70;;;;;;5016388;28;20454;-75
2022/05/15 12:49:32;;;;;;;10.20;2.33;;;26.90;88.80;;;;;;5031664;28;20508;-75
2022/05/15 12:52:15;;;;;;;4.57;2.35;;;27.00;90.40;;;;;;5032188;28;20443;-77
2022/05/15 12:54:42;;;;;;;6.32;2.78;;;26.80;90.60;;;;;;5019213;28;20457;-74
2022/05/15 12:57:16;;;;;;;7.73;2.03;;;26.60;91.00;;;;;;5025712;28;20202;-74
2022/05/15 12:59:46;;;;;;;5.73;2.40;;;26.40;90.80;;;;;;5014351;28;20989;-74
2022/05/15 13:02:21;;;;;;;5.00;2.60;;;26.30;91.60;;;;;;5015913;28;21002;-74
2022/05/15 13:04:51;;;;;;;7.43;2.80;;;25.90;90.80;;;;;;5026749;28;20485;-75
2022/05/15 13:07:23;;;;;;;5.45;2.10;;;25.90;92.10;;;;;;5024589;28;20449;-73
2022/05/15 13:09:58;;;;;;;6.47;3.40;;;26.00;91.00;;;;;;5041589;28;20269;-75
2022/05/15 13:12:26;;;;;;;10.00;3.10;;;25.90;92.00;;;;;;5027584;28;21004;-78
2022/05/15 13:14:54;;;;;;;14.13;9.70;;;26.00;92.00;;;;;;5012817;28;20446;-74
2022/05/15 13:17:28;;;;;;;10.13;2.80;;;26.50;90.70;;;;;;5027900;28;20493;-75